sensor_id;sensor_type;location;lat;lon;timestamp;pressure;altitude;pressure_sealevel;temperature;humidity
47985;BME280;33753;52.912;-7.342;2023-02-10T00:02:09;102225.44;;;0.74;100.00
47985;BME280;33753;52.912;-7.342;2023-02-10T00:04:39;102235.91;;;0.78;100.00
47985;BME280;33753;52.912;-7.342;2023-02-10T00:07:07;102244.84;;;0.77;100.00
47985;BME280;33753;52.912;-7.342;2023-02-10T00:09:36;102249.09;;;0.81;100.00
47985;BME280;33753;52.912;-7.342;2023-02-10T00:12:04;102254.41;;;0.81;100.00
47985;BME280;33753;52.912;-7.342;2023-02-10T00:14:34;102248.16;;;0.82;100.00
47985;BME280;33753;52.912;-7.342;2023-02-10T00:17:02;102244.66;;;0.82;100.00
47985;BME280;33753;52.912;-7.342;2023-02-10T00:19:30;102246.41;;;0.81;100.00
47985;BME280;33753;52.912;-7.342;2023-02-10T00:22:01;102242.19;;;0.77;100.00
47985;BME280;33753;52.912;-7.342;2023-02-10T00:24:30;102222.72;;;0.75;100.00
47985;BME280;33753;52.912;-7.342;2023-02-10T00:26:58;102218.22;;;0.77;100.00
47985;BME280;33753;52.912;-7.342;2023-02-10T00:29:27;102220.06;;;0.75;100.00
47985;BME280;33753;52.912;-7.342;2023-02-10T00:31:55;102221.59;;;0.81;100.00
47985;BME280;33753;52.912;-7.342;2023-02-10T00:34:23;102217.09;;;0.83;100.00
47985;BME280;33753;52.912;-7.342;2023-02-10T00:36:52;102230.13;;;0.89;100.00
47985;BME280;33753;52.912;-7.342;2023-02-10T00:39:21;102221.16;;;0.92;100.00
47985;BME280;33753;52.912;-7.342;2023-02-10T00:41:50;102217.16;;;1.02;100.00
47985;BME280;33753;52.912;-7.342;2023-02-10T00:44:18;102213.56;;;1.03;100.00
47985;BME280;33753;52.912;-7.342;2023-02-10T00:46:46;102209.03;;;1.05;100.00
47985;BME280;33753;52.912;-7.342;2023-02-10T00:49:14;102190.09;;;1.11;100.00
47985;BME280;33753;52.912;-7.342;2023-02-10T00:51:43;102188.47;;;1.07;100.00
47985;BME280;33753;52.912;-7.342;2023-02-10T00:54:11;102185.56;;;1.13;100.00
47985;BME280;33753;52.912;-7.342;2023-02-10T00:56:41;102191.81;;;1.12;100.00
47985;BME280;33753;52.912;-7.342;2023-02-10T00:59:10;102184.63;;;1.14;100.00
47985;BME280;33753;52.912;-7.342;2023-02-10T01:01:39;102186.22;;;1.18;100.00
47985;BME280;33753;52.912;-7.342;2023-02-10T01:04:07;102184.22;;;1.24;100.00
47985;BME280;33753;52.912;-7.342;2023-02-10T01:06:36;102188.56;;;1.26;100.00
47985;BME280;33753;52.912;-7.342;2023-02-10T01:09:04;102184.75;;;1.32;100.00
47985;BME280;33753;52.912;-7.342;2023-02-10T01:11:32;102190.88;;;1.34;100.00
47985;BME280;33753;52.912;-7.342;2023-02-10T01:14:03;102191.63;;;1.37;100.00
47985;BME280;33753;52.912;-7.342;2023-02-10T01:16:31;102187.00;;;1.41;100.00
47985;BME280;33753;52.912;-7.342;2023-02-10T01:18:59;102176.19;;;1.44;100.00
47985;BME280;33753;52.912;-7.342;2023-02-10T01:21:31;102177.00;;;1.46;100.00
47985;BME280;33753;52.912;-7.342;2023-02-10T01:24:00;102175.91;;;1.50;100.00
47985;BME280;33753;52.912;-7.342;2023-02-10T01:26:30;102178.44;;;1.53;100.00
47985;BME280;33753;52.912;-7.342;2023-02-10T01:28:58;102182.94;;;1.53;100.00
47985;BME280;33753;52.912;-7.342;2023-02-10T01:31:27;102183.25;;;1.64;100.00
47985;BME280;33753;52.912;-7.342;2023-02-10T01:33:56;102176.84;;;1.68;100.00
47985;BME280;33753;52.912;-7.342;2023-02-10T01:36:24;102184.53;;;1.76;100.00
47985;BME280;33753;52.912;-7.342;2023-02-10T01:38:52;102167.28;;;1.83;100.00
47985;BME280;33753;52.912;-7.342;2023-02-10T01:41:22;102171.53;;;1.87;100.00
47985;BME280;33753;52.912;-7.342;2023-02-10T01:44:01;102165.91;;;1.94;100.00
47985;BME280;33753;52.912;-7.342;2023-02-10T01:46:32;102163.81;;;2.00;100.00
47985;BME280;33753;52.912;-7.342;2023-02-10T01:49:03;102166.41;;;2.02;100.00
47985;BME280;33753;52.912;-7.342;2023-02-10T01:51:37;102164.34;;;2.07;100.00
47985;BME280;33753;52.912;-7.342;2023-02-10T01:54:07;102159.84;;;2.09;100.00
47985;BME280;33753;52.912;-7.342;2023-02-10T01:56:36;102153.41;;;2.13;100.00
47985;BME280;33753;52.912;-7.342;2023-02-10T01:59:05;102149.50;;;2.20;100.00
47985;BME280;33753;52.912;-7.342;2023-02-10T02:01:35;102147.59;;;2.22;100.00
47985;BME280;33753;52.912;-7.342;2023-02-10T02:04:03;102131.44;;;2.25;100.00
47985;BME280;33753;52.912;-7.342;2023-02-10T02:06:32;102136.56;;;2.30;100.00
47985;BME280;33753;52.912;-7.342;2023-02-10T02:09:01;102132.00;;;2.32;100.00
47985;BME280;33753;52.912;-7.342;2023-02-10T02:11:31;102132.47;;;2.40;100.00
47985;BME280;33753;52.912;-7.342;2023-02-10T02:14:10;102130.66;;;2.41;100.00
47985;BME280;33753;52.912;-7.342;2023-02-10T02:19:37;102127.63;;;2.49;100.00
47985;BME280;33753;52.912;-7.342;2023-02-10T02:25:01;102130.06;;;2.53;100.00
47985;BME280;33753;52.912;-7.342;2023-02-10T02:27:43;102131.78;;;2.54;100.00
47985;BME280;33753;52.912;-7.342;2023-02-10T02:30:26;102126.13;;;2.61;100.00
47985;BME280;33753;52.912;-7.342;2023-02-10T02:33:02;102124.31;;;2.61;100.00
47985;BME280;33753;52.912;-7.342;2023-02-10T02:35:34;102119.91;;;2.60;100.00
47985;BME280;33753;52.912;-7.342;2023-02-10T02:38:06;102104.59;;;2.64;100.00
47985;BME280;33753;52.912;-7.342;2023-02-10T02:40:34;102100.91;;;2.66;100.00
47985;BME280;33753;52.912;-7.342;2023-02-10T02:43:03;102101.91;;;2.64;100.00
47985;BME280;33753;52.912;-7.342;2023-02-10T02:45:32;102098.22;;;2.66;100.00
47985;BME280;33753;52.912;-7.342;2023-02-10T02:48:10;102099.09;;;2.67;100.00
47985;BME280;33753;52.912;-7.342;2023-02-10T02:50:44;102096.31;;;2.68;100.00
47985;BME280;33753;52.912;-7.342;2023-02-10T02:53:21;102094.00;;;2.62;100.00
47985;BME280;33753;52.912;-7.342;2023-02-10T02:55:56;102083.78;;;2.70;100.00
47985;BME280;33753;52.912;-7.342;2023-02-10T02:58:30;102084.63;;;2.71;100.00
47985;BME280;33753;52.912;-7.342;2023-02-10T03:01:02;102088.22;;;2.70;100.00
47985;BME280;33753;52.912;-7.342;2023-02-10T03:03:35;102083.78;;;2.70;100.00
47985;BME280;33753;52.912;-7.342;2023-02-10T03:06:06;102086.03;;;2.78;100.00
47985;BME280;33753;52.912;-7.342;2023-02-10T03:08:35;102087.75;;;2.79;100.00
47985;BME280;33753;52.912;-7.342;2023-02-10T03:11:05;102083.19;;;2.81;100.00
47985;BME280;33753;52.912;-7.342;2023-02-10T03:13:33;102080.34;;;2.84;100.00
47985;BME280;33753;52.912;-7.342;2023-02-10T03:16:01;102078.56;;;2.85;100.00
47985;BME280;33753;52.912;-7.342;2023-02-10T03:18:30;102079.03;;;2.93;100.00
47985;BME280;33753;52.912;-7.342;2023-02-10T03:20:59;102070.22;;;2.91;100.00
47985;BME280;33753;52.912;-7.342;2023-02-10T03:23:27;102067.28;;;2.96;100.00
47985;BME280;33753;52.912;-7.342;2023-02-10T03:25:57;102068.84;;;3.00;100.00
47985;BME280;33753;52.912;-7.342;2023-02-10T03:28:25;102069.81;;;2.99;100.00
47985;BME280;33753;52.912;-7.342;2023-02-10T03:30:53;102057.91;;;3.04;100.00
47985;BME280;33753;52.912;-7.342;2023-02-10T03:33:22;102059.56;;;3.07;100.00
47985;BME280;33753;52.912;-7.342;2023-02-10T03:35:50;102059.56;;;3.07;100.00
47985;BME280;33753;52.912;-7.342;2023-02-10T03:38:22;102061.19;;;3.09;100.00
47985;BME280;33753;52.912;-7.342;2023-02-10T03:40:52;102055.41;;;3.17;100.00
47985;BME280;33753;52.912;-7.342;2023-02-10T03:43:20;102060.94;;;3.14;100.00
47985;BME280;33753;52.912;-7.342;2023-02-10T03:45:49;102057.16;;;3.18;100.00
47985;BME280;33753;52.912;-7.342;2023-02-10T03:48:17;102060.28;;;3.26;100.00
47985;BME280;33753;52.912;-7.342;2023-02-10T03:50:47;102059.44;;;3.26;100.00
47985;BME280;33753;52.912;-7.342;2023-02-10T03:53:15;102051.16;;;3.31;100.00
47985;BME280;33753;52.912;-7.342;2023-02-10T03:55:45;102066.06;;;3.35;100.00
47985;BME280;33753;52.912;-7.342;2023-02-10T03:58:14;102067.88;;;3.34;100.00
47985;BME280;33753;52.912;-7.342;2023-02-10T04:00:42;102059.44;;;3.42;100.00
47985;BME280;33753;52.912;-7.342;2023-02-10T04:03:10;102064.78;;;3.42;100.00
47985;BME280;33753;52.912;-7.342;2023-02-10T04:05:38;102069.03;;;3.46;100.00
47985;BME280;33753;52.912;-7.342;2023-02-10T04:08:06;102059.94;;;3.49;100.00
47985;BME280;33753;52.912;-7.342;2023-02-10T04:10:34;102063.50;;;3.49;100.00
47985;BME280;33753;52.912;-7.342;2023-02-10T04:13:04;102055.28;;;3.52;100.00
47985;BME280;33753;52.912;-7.342;2023-02-10T04:15:32;102047.00;;;3.57;100.00
47985;BME280;33753;52.912;-7.342;2023-02-10T04:18:00;102050.66;;;3.56;100.00
47985;BME280;33753;52.912;-7.342;2023-02-10T04:20:29;102049.25;;;3.65;100.00
47985;BME280;33753;52.912;-7.342;2023-02-10T04:22:58;102048.38;;;3.64;100.00
47985;BME280;33753;52.912;-7.342;2023-02-10T04:25:26;102052.50;;;3.70;100.00
47985;BME280;33753;52.912;-7.342;2023-02-10T04:27:54;102049.00;;;3.69;100.00
47985;BME280;33753;52.912;-7.342;2023-02-10T04:30:23;102057.88;;;3.70;100.00
47985;BME280;33753;52.912;-7.342;2023-02-10T04:32:51;102049.31;;;3.79;100.00
47985;BME280;33753;52.912;-7.342;2023-02-10T04:35:20;102052.00;;;3.79;100.00
47985;BME280;33753;52.912;-7.342;2023-02-10T04:37:48;102057.19;;;3.82;100.00
47985;BME280;33753;52.912;-7.342;2023-02-10T04:40:16;102053.69;;;3.80;100.00
47985;BME280;33753;52.912;-7.342;2023-02-10T04:42:44;102051.72;;;3.84;100.00
47985;BME280;33753;52.912;-7.342;2023-02-10T04:45:12;102051.53;;;3.87;100.00
47985;BME280;33753;52.912;-7.342;2023-02-10T04:47:42;102058.53;;;3.89;100.00
47985;BME280;33753;52.912;-7.342;2023-02-10T04:50:10;102054.94;;;3.90;100.00
47985;BME280;33753;52.912;-7.342;2023-02-10T04:52:38;102074.44;;;3.92;100.00
47985;BME280;33753;52.912;-7.342;2023-02-10T04:55:07;102064.25;;;3.83;100.00
47985;BME280;33753;52.912;-7.342;2023-02-10T04:57:35;102064.09;;;3.86;100.00
47985;BME280;33753;52.912;-7.342;2023-02-10T05:00:03;102058.63;;;3.88;100.00
47985;BME280;33753;52.912;-7.342;2023-02-10T05:02:31;102057.19;;;3.82;100.00
47985;BME280;33753;52.912;-7.342;2023-02-10T05:05:01;102058.03;;;3.83;100.00
47985;BME280;33753;52.912;-7.342;2023-02-10T05:07:29;102058.31;;;3.78;100.00
47985;BME280;33753;52.912;-7.342;2023-02-10T05:09:58;102052.84;;;3.79;100.00
47985;BME280;33753;52.912;-7.342;2023-02-10T05:12:26;102046.47;;;3.82;100.00
47985;BME280;33753;52.912;-7.342;2023-02-10T05:14:54;102049.81;;;3.86;100.00
47985;BME280;33753;52.912;-7.342;2023-02-10T05:17:22;102048.97;;;3.85;100.00
47985;BME280;33753;52.912;-7.342;2023-02-10T05:19:50;102049.91;;;3.84;100.00
47985;BME280;33753;52.912;-7.342;2023-02-10T05:22:20;102050.78;;;3.85;100.00
47985;BME280;33753;52.912;-7.342;2023-02-10T05:24:51;102050.50;;;3.89;100.00
47985;BME280;33753;52.912;-7.342;2023-02-10T05:27:20;102044.56;;;3.84;100.00
47985;BME280;33753;52.912;-7.342;2023-02-10T05:29:49;102047.84;;;3.89;100.00
47985;BME280;33753;52.912;-7.342;2023-02-10T05:32:17;102049.56;;;3.90;100.00
47985;BME280;33753;52.912;-7.342;2023-02-10T05:34:45;102048.16;;;3.99;100.00
47985;BME280;33753;52.912;-7.342;2023-02-10T05:37:13;102046.63;;;3.95;100.00
47985;BME280;33753;52.912;-7.342;2023-02-10T05:39:43;102042.81;;;3.99;100.00
47985;BME280;33753;52.912;-7.342;2023-02-10T05:42:11;102049.88;;;4.00;100.00
47985;BME280;33753;52.912;-7.342;2023-02-10T05:44:40;102056.97;;;4.01;100.00
47985;BME280;33753;52.912;-7.342;2023-02-10T05:47:08;102052.66;;;3.98;100.00
47985;BME280;33753;52.912;-7.342;2023-02-10T05:49:36;102053.34;;;4.02;100.00
47985;BME280;33753;52.912;-7.342;2023-02-10T05:52:04;102057.75;;;4.03;100.00
47985;BME280;33753;52.912;-7.342;2023-02-10T05:54:32;102054.19;;;4.03;100.00
47985;BME280;33753;52.912;-7.342;2023-02-10T05:57:03;102064.91;;;4.03;100.00
47985;BME280;33753;52.912;-7.342;2023-02-10T05:59:31;102061.19;;;4.05;100.00
47985;BME280;33753;52.912;-7.342;2023-02-10T06:01:59;102060.25;;;4.06;100.00
47985;BME280;33753;52.912;-7.342;2023-02-10T06:04:27;102057.28;;;4.11;100.00
47985;BME280;33753;52.912;-7.342;2023-02-10T06:06:56;102059.56;;;4.03;100.00
47985;BME280;33753;52.912;-7.342;2023-02-10T06:09:24;102062.84;;;4.08;100.00
47985;BME280;33753;52.912;-7.342;2023-02-10T06:11:53;102066.63;;;4.04;100.00
47985;BME280;33753;52.912;-7.342;2023-02-10T06:14:23;102062.66;;;4.11;100.00
47985;BME280;33753;52.912;-7.342;2023-02-10T06:16:51;102066.13;;;4.13;100.00
47985;BME280;33753;52.912;-7.342;2023-02-10T06:19:20;102070.59;;;4.12;100.00
47985;BME280;33753;52.912;-7.342;2023-02-10T06:21:48;102069.75;;;4.12;100.00
47985;BME280;33753;52.912;-7.342;2023-02-10T06:24:16;102074.06;;;4.14;100.00
47985;BME280;33753;52.912;-7.342;2023-02-10T06:26:44;102073.88;;;4.18;100.00
47985;BME280;33753;52.912;-7.342;2023-02-10T06:29:12;102077.41;;;4.18;100.00
47985;BME280;33753;52.912;-7.342;2023-02-10T06:31:42;102085.25;;;4.21;100.00
47985;BME280;33753;52.912;-7.342;2023-02-10T06:34:10;102076.09;;;4.25;100.00
47985;BME280;33753;52.912;-7.342;2023-02-10T06:36:38;102071.53;;;4.27;100.00
47985;BME280;33753;52.912;-7.342;2023-02-10T06:39:06;102072.47;;;4.26;100.00
47985;BME280;33753;52.912;-7.342;2023-02-10T06:41:34;102077.44;;;4.32;100.00
47985;BME280;33753;52.912;-7.342;2023-02-10T06:44:03;102070.88;;;4.38;100.00
47985;BME280;33753;52.912;-7.342;2023-02-10T06:46:31;102074.34;;;4.40;100.00
47985;BME280;33753;52.912;-7.342;2023-02-10T06:49:01;102070.59;;;4.43;100.00
47985;BME280;33753;52.912;-7.342;2023-02-10T06:51:29;102069.44;;;4.47;100.00
47985;BME280;33753;52.912;-7.342;2023-02-10T06:53:57;102074.63;;;4.50;100.00
47985;BME280;33753;52.912;-7.342;2023-02-10T06:56:25;102076.25;;;4.53;100.00
47985;BME280;33753;52.912;-7.342;2023-02-10T06:58:54;102072.53;;;4.55;100.00
47985;BME280;33753;52.912;-7.342;2023-02-10T07:01:22;102076.56;;;4.62;100.00
47985;BME280;33753;52.912;-7.342;2023-02-10T07:03:50;102079.06;;;4.65;100.00
47985;BME280;33753;52.912;-7.342;2023-02-10T07:06:20;102073.34;;;4.72;100.00
47985;BME280;33753;52.912;-7.342;2023-02-10T07:08:48;102080.22;;;4.76;100.00
47985;BME280;33753;52.912;-7.342;2023-02-10T07:11:17;102077.19;;;4.82;100.00
47985;BME280;33753;52.912;-7.342;2023-02-10T07:13:45;102076.03;;;4.86;100.00
47985;BME280;33753;52.912;-7.342;2023-02-10T07:16:13;102082.56;;;4.96;100.00
47985;BME280;33753;52.912;-7.342;2023-02-10T07:18:43;102084.09;;;5.00;100.00
47985;BME280;33753;52.912;-7.342;2023-02-10T07:21:11;102077.59;;;5.05;100.00
47985;BME280;33753;52.912;-7.342;2023-02-10T07:23:41;102078.81;;;5.13;100.00
47985;BME280;33753;52.912;-7.342;2023-02-10T07:26:09;102081.97;;;5.20;100.00
47985;BME280;33753;52.912;-7.342;2023-02-10T07:28:38;102088.75;;;5.26;100.00
47985;BME280;33753;52.912;-7.342;2023-02-10T07:31:07;102078.72;;;5.29;100.00
47985;BME280;33753;52.912;-7.342;2023-02-10T07:33:35;102086.16;;;5.39;100.00
47985;BME280;33753;52.912;-7.342;2023-02-10T07:36:05;102088.47;;;5.45;100.00
47985;BME280;33753;52.912;-7.342;2023-02-10T07:38:33;102095.19;;;5.52;100.00
47985;BME280;33753;52.912;-7.342;2023-02-10T07:41:03;102101.00;;;5.59;100.00
47985;BME280;33753;52.912;-7.342;2023-02-10T07:43:32;102106.09;;;5.63;100.00
47985;BME280;33753;52.912;-7.342;2023-02-10T07:46:07;102100.41;;;5.68;100.00
47985;BME280;33753;52.912;-7.342;2023-02-10T07:48:35;102103.00;;;5.69;100.00
47985;BME280;33753;52.912;-7.342;2023-02-10T07:51:03;102104.72;;;5.70;100.00
47985;BME280;33753;52.912;-7.342;2023-02-10T07:53:32;102110.47;;;5.79;100.00
47985;BME280;33753;52.912;-7.342;2023-02-10T07:56:00;102115.84;;;5.79;100.00
47985;BME280;33753;52.912;-7.342;2023-02-10T07:58:30;102111.03;;;5.84;100.00
47985;BME280;33753;52.912;-7.342;2023-02-10T08:00:58;102113.59;;;5.85;100.00
47985;BME280;33753;52.912;-7.342;2023-02-10T08:03:26;102109.75;;;5.89;100.00
47985;BME280;33753;52.912;-7.342;2023-02-10T08:05:54;102112.53;;;5.88;100.00
47985;BME280;33753;52.912;-7.342;2023-02-10T08:08:23;102122.88;;;5.94;100.00
47985;BME280;33753;52.912;-7.342;2023-02-10T08:10:51;102116.66;;;5.94;100.00
47985;BME280;33753;52.912;-7.342;2023-02-10T08:13:20;102111.09;;;5.97;100.00
47985;BME280;33753;52.912;-7.342;2023-02-10T08:15:49;102113.69;;;5.98;100.00
47985;BME280;33753;52.912;-7.342;2023-02-10T08:18:18;102120.50;;;6.04;100.00
47985;BME280;33753;52.912;-7.342;2023-02-10T08:20:46;102122.13;;;6.07;100.00
47985;BME280;33753;52.912;-7.342;2023-02-10T08:23:15;102119.31;;;6.08;100.00
47985;BME280;33753;52.912;-7.342;2023-02-10T08:25:44;102125.38;;;6.12;100.00
47985;BME280;33753;52.912;-7.342;2023-02-10T08:28:12;102132.34;;;6.14;100.00
47985;BME280;33753;52.912;-7.342;2023-02-10T08:30:41;102125.16;;;6.15;100.00
47985;BME280;33753;52.912;-7.342;2023-02-10T08:33:11;102139.13;;;6.20;100.00
47985;BME280;33753;52.912;-7.342;2023-02-10T08:35:39;102126.47;;;6.22;100.00
47985;BME280;33753;52.912;-7.342;2023-02-10T08:38:08;102129.91;;;6.24;100.00
47985;BME280;33753;52.912;-7.342;2023-02-10T08:40:37;102129.72;;;6.27;100.00
47985;BME280;33753;52.912;-7.342;2023-02-10T08:43:05;102134.69;;;6.33;100.00
47985;BME280;33753;52.912;-7.342;2023-02-10T08:45:33;102144.16;;;6.39;100.00
47985;BME280;33753;52.912;-7.342;2023-02-10T08:48:04;102143.97;;;6.42;100.00
47985;BME280;33753;52.912;-7.342;2023-02-10T08:50:34;102150.84;;;6.46;100.00
47985;BME280;33753;52.912;-7.342;2023-02-10T08:53:02;102151.50;;;6.50;100.00
47985;BME280;33753;52.912;-7.342;2023-02-10T08:55:31;102151.28;;;6.53;100.00
47985;BME280;33753;52.912;-7.342;2023-02-10T08:58:01;102157.44;;;6.55;100.00
47985;BME280;33753;52.912;-7.342;2023-02-10T09:00:39;102156.38;;;6.57;100.00
47985;BME280;33753;52.912;-7.342;2023-02-10T09:03:13;102166.81;;;6.62;100.00
47985;BME280;33753;52.912;-7.342;2023-02-10T09:05:43;102170.47;;;6.61;100.00
47985;BME280;33753;52.912;-7.342;2023-02-10T09:08:14;102163.81;;;6.67;100.00
47985;BME280;33753;52.912;-7.342;2023-02-10T09:10:43;102168.44;;;6.65;100.00
47985;BME280;33753;52.912;-7.342;2023-02-10T09:13:11;102173.72;;;6.66;100.00
47985;BME280;33753;52.912;-7.342;2023-02-10T09:15:42;102169.06;;;6.68;100.00
47985;BME280;33753;52.912;-7.342;2023-02-10T09:18:10;102175.44;;;6.67;100.00
47985;BME280;33753;52.912;-7.342;2023-02-10T09:20:39;102176.81;;;6.73;100.00
47985;BME280;33753;52.912;-7.342;2023-02-10T09:23:08;102178.25;;;6.79;100.00
47985;BME280;33753;52.912;-7.342;2023-02-10T09:25:36;102187.09;;;6.81;100.00
47985;BME280;33753;52.912;-7.342;2023-02-10T09:28:05;102179.53;;;6.86;100.00
47985;BME280;33753;52.912;-7.342;2023-02-10T09:30:33;102178.94;;;6.95;100.00
47985;BME280;33753;52.912;-7.342;2023-02-10T09:33:01;102180.56;;;6.98;100.00
47985;BME280;33753;52.912;-7.342;2023-02-10T09:35:30;102180.00;;;7.05;100.00
47985;BME280;33753;52.912;-7.342;2023-02-10T09:37:58;102184.78;;;7.15;100.00
47985;BME280;33753;52.912;-7.342;2023-02-10T09:40:30;102185.28;;;7.20;100.00
47985;BME280;33753;52.912;-7.342;2023-02-10T09:43:06;102189.28;;;7.27;100.00
47985;BME280;33753;52.912;-7.342;2023-02-10T09:45:40;102190.56;;;7.34;100.00
47985;BME280;33753;52.912;-7.342;2023-02-10T09:48:18;102200.72;;;7.43;100.00
47985;BME280;33753;52.912;-7.342;2023-02-10T09:50:53;102198.53;;;7.49;100.00
47985;BME280;33753;52.912;-7.342;2023-02-10T09:53:23;102201.56;;;7.57;100.00
47985;BME280;33753;52.912;-7.342;2023-02-10T09:55:55;102209.94;;;7.65;100.00
47985;BME280;33753;52.912;-7.342;2023-02-10T09:58:26;102207.81;;;7.70;100.00
47985;BME280;33753;52.912;-7.342;2023-02-10T10:00:58;102210.06;;;7.76;100.00
47985;BME280;33753;52.912;-7.342;2023-02-10T10:03:37;102207.91;;;7.82;100.00
47985;BME280;33753;52.912;-7.342;2023-02-10T10:06:09;102208.41;;;7.87;100.00
47985;BME280;33753;52.912;-7.342;2023-02-10T10:08:43;102218.72;;;7.93;100.00
47985;BME280;33753;52.912;-7.342;2023-02-10T10:11:19;102215.72;;;7.98;100.00
47985;BME280;33753;52.912;-7.342;2023-02-10T10:13:50;102215.16;;;8.05;100.00
47985;BME280;33753;52.912;-7.342;2023-02-10T10:16:25;102217.00;;;8.05;100.00
47985;BME280;33753;52.912;-7.342;2023-02-10T10:19:02;102217.41;;;8.11;100.00
47985;BME280;33753;52.912;-7.342;2023-02-10T10:21:34;102219.91;;;8.15;100.00
47985;BME280;33753;52.912;-7.342;2023-02-10T10:24:08;102223.75;;;8.23;100.00
47985;BME280;33753;52.912;-7.342;2023-02-10T10:26:47;102218.00;;;8.28;100.00
47985;BME280;33753;52.912;-7.342;2023-02-10T10:29:20;102227.25;;;8.37;100.00
47985;BME280;33753;52.912;-7.342;2023-02-10T10:31:53;102226.50;;;8.47;100.00
47985;BME280;33753;52.912;-7.342;2023-02-10T10:34:27;102233.88;;;8.57;100.00
47985;BME280;33753;52.912;-7.342;2023-02-10T10:36:57;102239.56;;;8.65;100.00
47985;BME280;33753;52.912;-7.342;2023-02-10T10:39:28;102241.81;;;8.71;100.00
47985;BME280;33753;52.912;-7.342;2023-02-10T10:42:02;102246.28;;;8.84;100.00
47985;BME280;33753;52.912;-7.342;2023-02-10T10:44:32;102245.81;;;8.90;100.00
47985;BME280;33753;52.912;-7.342;2023-02-10T10:47:02;102250.03;;;9.05;100.00
47985;BME280;33753;52.912;-7.342;2023-02-10T10:49:35;102234.00;;;9.15;100.00
47985;BME280;33753;52.912;-7.342;2023-02-10T10:52:05;102241.78;;;9.31;100.00
47985;BME280;33753;52.912;-7.342;2023-02-10T10:54:46;102239.97;;;9.54;100.00
47985;BME280;33753;52.912;-7.342;2023-02-10T10:57:15;102233.59;;;9.66;100.00
47985;BME280;33753;52.912;-7.342;2023-02-10T10:59:47;102243.66;;;9.76;100.00
47985;BME280;33753;52.912;-7.342;2023-02-10T11:02:17;102235.69;;;9.74;100.00
47985;BME280;33753;52.912;-7.342;2023-02-10T11:04:58;102240.84;;;9.77;100.00
47985;BME280;33753;52.912;-7.342;2023-02-10T11:07:27;102231.63;;;9.80;100.00
47985;BME280;33753;52.912;-7.342;2023-02-10T11:09:58;102233.59;;;9.89;100.00
47985;BME280;33753;52.912;-7.342;2023-02-10T11:12:30;102228.56;;;9.96;100.00
47985;BME280;33753;52.912;-7.342;2023-02-10T11:14:59;102214.69;;;10.00;100.00
47985;BME280;33753;52.912;-7.342;2023-02-10T11:17:30;102213.53;;;10.03;100.00
47985;BME280;33753;52.912;-7.342;2023-02-10T11:20:03;102215.25;;;10.15;100.00
47985;BME280;33753;52.912;-7.342;2023-02-10T11:22:33;102215.75;;;10.20;100.00
47985;BME280;33753;52.912;-7.342;2023-02-10T11:25:03;102208.38;;;10.23;100.00
47985;BME280;33753;52.912;-7.342;2023-02-10T11:27:34;102201.47;;;10.30;100.00
47985;BME280;33753;52.912;-7.342;2023-02-10T11:30:02;102198.63;;;10.43;100.00
47985;BME280;33753;52.912;-7.342;2023-02-10T11:32:31;102205.38;;;10.48;100.00
47985;BME280;33753;52.912;-7.342;2023-02-10T11:35:01;102194.59;;;10.69;100.00
47985;BME280;33753;52.912;-7.342;2023-02-10T11:37:32;102196.06;;;10.74;100.00
47985;BME280;33753;52.912;-7.342;2023-02-10T11:40:03;102188.41;;;10.79;100.00
47985;BME280;33753;52.912;-7.342;2023-02-10T11:42:32;102186.31;;;10.82;100.00
47985;BME280;33753;52.912;-7.342;2023-02-10T11:45:14;102171.78;;;10.83;100.00
47985;BME280;33753;52.912;-7.342;2023-02-10T11:47:43;102170.84;;;10.94;100.00
47985;BME280;33753;52.912;-7.342;2023-02-10T11:50:20;102172.03;;;11.01;100.00
47985;BME280;33753;52.912;-7.342;2023-02-10T11:52:49;102175.16;;;10.97;100.00
47985;BME280;33753;52.912;-7.342;2023-02-10T11:55:17;102174.66;;;10.92;100.00
47985;BME280;33753;52.912;-7.342;2023-02-10T11:57:48;102169.53;;;10.88;100.00
47985;BME280;33753;52.912;-7.342;2023-02-10T12:00:40;102156.13;;;11.08;100.00
47985;BME280;33753;52.912;-7.342;2023-02-10T12:03:18;102159.25;;;11.03;100.00
47985;BME280;33753;52.912;-7.342;2023-02-10T12:05:57;102151.56;;;11.09;100.00
47985;BME280;33753;52.912;-7.342;2023-02-10T12:08:33;102157.38;;;11.25;100.00
47985;BME280;33753;52.912;-7.342;2023-02-10T12:11:09;102154.06;;;11.21;100.00
47985;BME280;33753;52.912;-7.342;2023-02-10T12:13:41;102147.09;;;11.19;100.00
47985;BME280;33753;52.912;-7.342;2023-02-10T12:16:18;102140.50;;;11.21;100.00
47985;BME280;33753;52.912;-7.342;2023-02-10T12:18:57;102140.66;;;11.20;100.00
47985;BME280;33753;52.912;-7.342;2023-02-10T12:21:32;102141.56;;;11.30;100.00
47985;BME280;33753;52.912;-7.342;2023-02-10T12:24:06;102129.59;;;11.33;100.00
47985;BME280;33753;52.912;-7.342;2023-02-10T12:26:41;102128.34;;;11.37;100.00
47985;BME280;33753;52.912;-7.342;2023-02-10T12:29:15;102134.91;;;11.44;100.00
47985;BME280;33753;52.912;-7.342;2023-02-10T12:31:51;102135.69;;;11.56;100.00
47985;BME280;33753;52.912;-7.342;2023-02-10T12:34:27;102118.56;;;11.55;100.00
47985;BME280;33753;52.912;-7.342;2023-02-10T12:37:02;102122.13;;;11.56;100.00
47985;BME280;33753;52.912;-7.342;2023-02-10T12:39:35;102114.59;;;11.59;100.00
47985;BME280;33753;52.912;-7.342;2023-02-10T12:42:11;102114.50;;;11.71;100.00
47985;BME280;33753;52.912;-7.342;2023-02-10T12:44:46;102120.38;;;11.76;100.00
47985;BME280;33753;52.912;-7.342;2023-02-10T12:47:22;102112.94;;;11.78;100.00
47985;BME280;33753;52.912;-7.342;2023-02-10T12:50:00;102110.25;;;11.88;100.00
47985;BME280;33753;52.912;-7.342;2023-02-10T12:52:31;102108.09;;;11.82;100.00
47985;BME280;33753;52.912;-7.342;2023-02-10T12:55:03;102101.25;;;11.78;100.00
47985;BME280;33753;52.912;-7.342;2023-02-10T12:57:37;102109.66;;;11.84;100.00
47985;BME280;33753;52.912;-7.342;2023-02-10T13:00:11;102108.88;;;11.93;100.00